This demonstration page uses our WeatherBlox Daily Observations layout. Learn more.

Hourly Observations for May 30, 2019

Temp ( °F °C ) Dew Point ( °F °C ) Humidity (%) Winds ( mph kmh ) Pressure ( in mb ) Visibility ( mi km ) Precip ( " mm )
12:54 am 00:54 Cloudy 59 15 52 11.1 78 78 W 7 11 29.8 1009 10 16.09344 0 0
1:54 am 01:54 Cloudy 59 15 52 11.1 78 78 W 5 7 29.77 1008 10 16.09344 0 0
2:54 am 02:54 Mostly Cloudy 58 14.4 51 10.6 78 78 WSW 8 13 29.77 1008 10 16.09344 0 0
3:54 am 03:54 Mostly Cloudy 57 13.9 51 10.6 81 81 W 7 11 29.77 1008 10 16.09344 0 0
4:54 am 04:54 Mostly Cloudy 58 14.4 50 10 75 75 NW 8 13 29.77 1008 10 16.09344 0 0
5:54 am 05:54 Cloudy with Light Rain 58 14.4 51 10.6 78 78 Calm 29.77 1008 10 16.09344 0.001 0.001
6:54 am 06:54 Cloudy with Light Rain 57 13.9 53 11.7 87 87 S 3 6 29.8 1009 10 16.09344 0.001 0.001
7:54 am 07:54 Cloudy 59 15 53 11.7 81 81 WSW 8 13 29.77 1008 10 16.09344 0.001 0.001
8:54 am 08:54 Cloudy 63 17.2 52 11.1 68 68 WNW 9 15 29.77 1008 10 16.09344 0 0
9:54 am 09:54 Mostly Cloudy 68 20 53 11.7 59 59 NW 12 19 29.8 1009 10 16.09344 0 0
10:54 am 10:54 Mostly Sunny 70 21.1 53 11.7 55 55 N 13 20 29.8 1009 10 16.09344 0 0
11:54 am 11:54 Sunny 72 22.2 54 12.2 53 53 N 12 19 29.8 1009 10 16.09344 0 0
12:54 pm 12:54 Cloudy 72 22.2 53 11.7 52 52 N 10 17 29.83 1010 10 16.09344 0 0
1:54 pm 13:54 Mostly Sunny 74 23.3 55 12.8 52 52 NNE 7 11 29.83 1010 10 16.09344 0.001 0.001
2:54 pm 14:54 Mostly Sunny 77 25 53 11.7 43 43 NNE 12 19 29.83 1010 10 16.09344 0 0
3:54 pm 15:54 Sunny 79 26.1 51 10.6 38 38 N 15 24 29.83 1010 10 16.09344 0 0
4:54 pm 16:54 Sunny 79 26.1 49 9.4 35 35 N 14 22 29.83 1010 10 16.09344 0 0
5:54 pm 17:54 Sunny 78 25.6 50 10 37 37 N 15 24 29.83 1010 10 16.09344 0 0
6:54 pm 18:54 Sunny 76 24.4 48 8.9 37 37 N 16 26 29.83 1010 10 16.09344 0 0
7:54 pm 19:54 Sunny 71 21.7 52 11.1 51 51 N 7 11 29.85 1011 10 16.09344 0 0
8:54 pm 20:54 Clear 67 19.4 52 11.1 59 59 N 3 6 29.85 1011 10 16.09344 0 0
9:54 pm 21:54 Clear 63 17.2 52 11.1 68 68 Calm 29.88 1012 10 16.09344 0 0
10:54 pm 22:54 Clear 61 16.1 54 12.2 78 78 Calm 29.91 1013 10 16.09344 0 0
11:54 pm 23:54 Clear 59 15 53 11.7 81 81 Calm 29.91 1013 10 16.09344 0 0

Powered by AerisWeather